sensor_id;sensor_type;location;lat;lon;timestamp;pressure;altitude;pressure_sealevel;temperature;humidity
75424;BME280;64005;55.160;36.002;2023-02-23T00:00:25;99178.22;;;-15.23;74.49
75424;BME280;64005;55.160;36.002;2023-02-23T00:02:54;99187.38;;;-15.26;73.57
75424;BME280;64005;55.160;36.002;2023-02-23T00:05:24;99189.06;;;-15.25;74.42
75424;BME280;64005;55.160;36.002;2023-02-23T00:07:52;99190.22;;;-15.27;74.38
75424;BME280;64005;55.160;36.002;2023-02-23T00:10:20;99193.88;;;-15.28;74.31
75424;BME280;64005;55.160;36.002;2023-02-23T00:12:56;99189.06;;;-15.25;74.31
75424;BME280;64005;55.160;36.002;2023-02-23T00:15:26;99191.41;;;-15.30;74.11
75424;BME280;64005;55.160;36.002;2023-02-23T00:17:55;99195.06;;;-15.31;74.25
75424;BME280;64005;55.160;36.002;2023-02-23T00:20:23;99198.56;;;-15.31;74.06
75424;BME280;64005;55.160;36.002;2023-02-23T00:22:53;99123.28;;;-15.73;74.25
75424;BME280;64005;55.160;36.002;2023-02-23T00:25:22;99147.94;;;-15.63;74.47
75424;BME280;64005;55.160;36.002;2023-02-23T00:27:50;99181.72;;;-15.39;74.60
75424;BME280;64005;55.160;36.002;2023-02-23T00:30:18;99194.53;;;-15.35;74.85
75424;BME280;64005;55.160;36.002;2023-02-23T00:32:49;99182.25;;;-15.36;74.72
75424;BME280;64005;55.160;36.002;2023-02-23T00:35:17;99193.72;;;-15.35;75.05
75424;BME280;64005;55.160;36.002;2023-02-23T00:37:45;99186.53;;;-15.35;75.13
75424;BME280;64005;55.160;36.002;2023-02-23T00:40:13;99187.38;;;-15.34;74.07
75424;BME280;64005;55.160;36.002;2023-02-23T00:42:43;99198.25;;;-15.36;74.41
75424;BME280;64005;55.160;36.002;2023-02-23T00:45:12;99195.72;;;-15.37;74.20
75424;BME280;64005;55.160;36.002;2023-02-23T00:47:40;99187.25;;;-15.49;74.20
75424;BME280;64005;55.160;36.002;2023-02-23T00:50:12;99194.72;;;-15.44;75.18
75424;BME280;64005;55.160;36.002;2023-02-23T00:52:42;99154.41;;;-15.74;74.88
75424;BME280;64005;55.160;36.002;2023-02-23T00:55:11;99201.06;;;-15.45;74.40
75424;BME280;64005;55.160;36.002;2023-02-23T00:57:40;99207.38;;;-15.46;74.39
75424;BME280;64005;55.160;36.002;2023-02-23T01:00:10;99210.41;;;-15.49;74.36
75424;BME280;64005;55.160;36.002;2023-02-23T01:02:45;99213.56;;;-15.54;74.62
75424;BME280;64005;55.160;36.002;2023-02-23T01:05:15;99220.91;;;-15.56;74.35
75424;BME280;64005;55.160;36.002;2023-02-23T01:07:42;99232.06;;;-15.60;74.53
75424;BME280;64005;55.160;36.002;2023-02-23T01:10:12;99227.91;;;-15.63;74.89
75424;BME280;64005;55.160;36.002;2023-02-23T01:12:46;99221.22;;;-15.67;73.95
75424;BME280;64005;55.160;36.002;2023-02-23T01:15:14;99226.06;;;-15.70;74.82
75424;BME280;64005;55.160;36.002;2023-02-23T01:17:42;99229.03;;;-15.74;74.94
75424;BME280;64005;55.160;36.002;2023-02-23T01:20:12;99219.72;;;-15.78;75.34
75424;BME280;64005;55.160;36.002;2023-02-23T01:22:47;99210.22;;;-15.80;74.88
75424;BME280;64005;55.160;36.002;2023-02-23T01:25:15;99228.03;;;-15.81;74.99
75424;BME280;64005;55.160;36.002;2023-02-23T01:27:44;99231.03;;;-15.84;75.20
75424;BME280;64005;55.160;36.002;2023-02-23T01:30:14;99235.84;;;-15.87;74.96
75424;BME280;64005;55.160;36.002;2023-02-23T01:32:41;99227.50;;;-15.92;74.70
75424;BME280;64005;55.160;36.002;2023-02-23T01:35:10;99237.81;;;-15.97;74.81
75424;BME280;64005;55.160;36.002;2023-02-23T01:37:43;99232.16;;;-16.02;75.21
75424;BME280;64005;55.160;36.002;2023-02-23T01:40:16;99200.13;;;-16.19;75.28
75424;BME280;64005;55.160;36.002;2023-02-23T01:42:55;99152.94;;;-16.50;75.05
75424;BME280;64005;55.160;36.002;2023-02-23T01:45:27;99235.66;;;-16.02;74.55
75424;BME280;64005;55.160;36.002;2023-02-23T01:47:57;99233.09;;;-16.12;74.58
75424;BME280;64005;55.160;36.002;2023-02-23T01:50:31;99247.59;;;-16.06;74.78
75424;BME280;64005;55.160;36.002;2023-02-23T01:53:01;99248.75;;;-16.08;75.21
75424;BME280;64005;55.160;36.002;2023-02-23T01:55:30;99250.63;;;-16.09;74.81
75424;BME280;64005;55.160;36.002;2023-02-23T01:58:04;99211.34;;;-16.41;74.60
75424;BME280;64005;55.160;36.002;2023-02-23T02:00:33;99260.59;;;-16.11;75.09
75424;BME280;64005;55.160;36.002;2023-02-23T02:03:06;99267.72;;;-16.12;74.93
75424;BME280;64005;55.160;36.002;2023-02-23T02:05:37;99258.41;;;-16.16;74.83
75424;BME280;64005;55.160;36.002;2023-02-23T02:08:07;99272.72;;;-16.17;74.32
75424;BME280;64005;55.160;36.002;2023-02-23T02:10:37;99274.19;;;-16.22;74.69
75424;BME280;64005;55.160;36.002;2023-02-23T02:13:16;99271.34;;;-16.21;74.66
75424;BME280;64005;55.160;36.002;2023-02-23T02:16:47;99268.50;;;-16.27;74.51
75424;BME280;64005;55.160;36.002;2023-02-23T02:22:39;99279.00;;;-16.26;74.40
75424;BME280;64005;55.160;36.002;2023-02-23T02:25:27;99244.56;;;-16.53;74.71
75424;BME280;64005;55.160;36.002;2023-02-23T02:31:26;99286.63;;;-16.31;74.42
75424;BME280;64005;55.160;36.002;2023-02-23T02:34:31;99293.94;;;-16.33;74.49
75424;BME280;64005;55.160;36.002;2023-02-23T02:40:07;99299.19;;;-16.41;75.66
75424;BME280;64005;55.160;36.002;2023-02-23T02:42:53;99299.00;;;-16.47;75.34
75424;BME280;64005;55.160;36.002;2023-02-23T02:45:27;99297.66;;;-16.52;75.71
75424;BME280;64005;55.160;36.002;2023-02-23T02:48:02;99297.63;;;-16.60;74.32
75424;BME280;64005;55.160;36.002;2023-02-23T02:50:41;99283.13;;;-16.65;74.76
75424;BME280;64005;55.160;36.002;2023-02-23T02:53:22;99298.28;;;-16.58;74.25
75424;BME280;64005;55.160;36.002;2023-02-23T02:55:53;99302.44;;;-16.63;75.53
75424;BME280;64005;55.160;36.002;2023-02-23T02:58:25;99301.06;;;-16.67;74.45
75424;BME280;64005;55.160;36.002;2023-02-23T03:00:53;99302.75;;;-16.66;74.49
75424;BME280;64005;55.160;36.002;2023-02-23T03:03:39;99297.75;;;-16.69;74.75
75424;BME280;64005;55.160;36.002;2023-02-23T03:06:28;99298.75;;;-16.70;74.16
75424;BME280;64005;55.160;36.002;2023-02-23T03:09:27;99290.06;;;-16.72;73.95
75424;BME280;64005;55.160;36.002;2023-02-23T03:12:24;99303.16;;;-16.79;73.92
75424;BME280;64005;55.160;36.002;2023-02-23T03:15:20;99301.63;;;-16.81;74.27
75424;BME280;64005;55.160;36.002;2023-02-23T03:18:15;99309.94;;;-16.84;74.00
75424;BME280;64005;55.160;36.002;2023-02-23T03:21:11;99313.22;;;-16.90;74.97
75424;BME280;64005;55.160;36.002;2023-02-23T03:24:09;99323.50;;;-16.96;75.09
75424;BME280;64005;55.160;36.002;2023-02-23T03:27:00;99316.19;;;-16.94;74.43
75424;BME280;64005;55.160;36.002;2023-02-23T03:29:53;99315.34;;;-16.94;74.24
75424;BME280;64005;55.160;36.002;2023-02-23T03:32:46;99317.16;;;-16.95;75.29
75424;BME280;64005;55.160;36.002;2023-02-23T03:35:36;99310.50;;;-16.99;74.47
75424;BME280;64005;55.160;36.002;2023-02-23T03:38:30;99316.13;;;-17.02;74.26
75424;BME280;64005;55.160;36.002;2023-02-23T03:41:18;99306.25;;;-17.09;75.36
75424;BME280;64005;55.160;36.002;2023-02-23T03:44:13;99330.56;;;-17.04;75.27
75424;BME280;64005;55.160;36.002;2023-02-23T03:47:00;99320.41;;;-17.09;75.36
75424;BME280;64005;55.160;36.002;2023-02-23T03:49:46;99334.53;;;-17.08;75.42
75424;BME280;64005;55.160;36.002;2023-02-23T03:52:35;99332.69;;;-17.08;75.06
75424;BME280;64005;55.160;36.002;2023-02-23T03:55:28;99326.38;;;-17.07;74.62
75424;BME280;64005;55.160;36.002;2023-02-23T03:58:18;99325.53;;;-17.07;74.56
75424;BME280;64005;55.160;36.002;2023-02-23T04:01:10;99326.63;;;-17.18;74.46
75424;BME280;64005;55.160;36.002;2023-02-23T04:03:57;99332.31;;;-17.13;75.37
75424;BME280;64005;55.160;36.002;2023-02-23T04:06:45;99343.78;;;-17.12;74.84
75424;BME280;64005;55.160;36.002;2023-02-23T04:09:31;99336.78;;;-17.13;74.50
75424;BME280;64005;55.160;36.002;2023-02-23T04:12:20;99336.78;;;-17.13;74.10
75424;BME280;64005;55.160;36.002;2023-02-23T04:15:11;99335.81;;;-17.12;75.41
75424;BME280;64005;55.160;36.002;2023-02-23T04:17:42;99337.34;;;-17.10;75.10
75424;BME280;64005;55.160;36.002;2023-02-23T04:20:11;99336.50;;;-17.10;75.33
75424;BME280;64005;55.160;36.002;2023-02-23T04:22:39;99345.97;;;-17.08;75.47
75424;BME280;64005;55.160;36.002;2023-02-23T04:25:08;99344.00;;;-17.06;74.50
75424;BME280;64005;55.160;36.002;2023-02-23T04:27:36;99348.50;;;-17.06;73.85
75424;BME280;64005;55.160;36.002;2023-02-23T04:30:05;99348.50;;;-17.06;74.56
75424;BME280;64005;55.160;36.002;2023-02-23T04:32:36;99340.66;;;-17.08;73.86
75424;BME280;64005;55.160;36.002;2023-02-23T04:35:06;99343.88;;;-17.04;74.15
75424;BME280;64005;55.160;36.002;2023-02-23T04:37:34;99356.31;;;-17.05;74.37
75424;BME280;64005;55.160;36.002;2023-02-23T04:40:01;99352.69;;;-17.04;74.43
75424;BME280;64005;55.160;36.002;2023-02-23T04:42:29;99356.59;;;-17.08;74.39
75424;BME280;64005;55.160;36.002;2023-02-23T04:44:57;99360.34;;;-17.01;74.87
75424;BME280;64005;55.160;36.002;2023-02-23T04:47:24;99351.69;;;-17.03;73.66
75424;BME280;64005;55.160;36.002;2023-02-23T04:49:52;99355.34;;;-17.04;74.87
75424;BME280;64005;55.160;36.002;2023-02-23T04:52:21;99360.66;;;-17.04;74.86
75424;BME280;64005;55.160;36.002;2023-02-23T04:54:48;99352.53;;;-17.02;73.69
75424;BME280;64005;55.160;36.002;2023-02-23T04:57:16;99361.50;;;-17.03;74.18
75424;BME280;64005;55.160;36.002;2023-02-23T04:59:43;99355.19;;;-17.02;73.50
75424;BME280;64005;55.160;36.002;2023-02-23T05:02:11;99370.81;;;-16.99;74.25
75424;BME280;64005;55.160;36.002;2023-02-23T05:04:38;99362.56;;;-16.96;73.95
75424;BME280;64005;55.160;36.002;2023-02-23T05:07:06;99370.91;;;-16.91;73.91
75424;BME280;64005;55.160;36.002;2023-02-23T05:09:35;99365.81;;;-16.84;74.50
75424;BME280;64005;55.160;36.002;2023-02-23T05:12:02;99362.00;;;-16.82;73.87
75424;BME280;64005;55.160;36.002;2023-02-23T05:14:30;99360.56;;;-16.76;73.12
75424;BME280;64005;55.160;36.002;2023-02-23T05:16:57;99370.50;;;-16.78;73.06
75424;BME280;64005;55.160;36.002;2023-02-23T05:19:25;99357.28;;;-16.70;73.00
75424;BME280;64005;55.160;36.002;2023-02-23T05:21:52;99362.97;;;-16.65;73.41
75424;BME280;64005;55.160;36.002;2023-02-23T05:24:19;99369.63;;;-16.61;73.84
75424;BME280;64005;55.160;36.002;2023-02-23T05:26:48;99364.81;;;-16.58;72.88
75424;BME280;64005;55.160;36.002;2023-02-23T05:29:16;99374.84;;;-16.52;74.16
75424;BME280;64005;55.160;36.002;2023-02-23T05:31:43;99368.91;;;-16.45;72.56
75424;BME280;64005;55.160;36.002;2023-02-23T05:34:13;99374.75;;;-16.42;74.09
75424;BME280;64005;55.160;36.002;2023-02-23T05:36:41;99374.97;;;-16.35;73.33
75424;BME280;64005;55.160;36.002;2023-02-23T05:39:09;99380.81;;;-16.32;73.97
75424;BME280;64005;55.160;36.002;2023-02-23T05:41:37;99387.19;;;-16.25;73.69
75424;BME280;64005;55.160;36.002;2023-02-23T05:44:06;99387.53;;;-16.20;73.30
75424;BME280;64005;55.160;36.002;2023-02-23T05:46:33;99381.06;;;-16.17;72.99
75424;BME280;64005;55.160;36.002;2023-02-23T05:49:01;99388.94;;;-16.07;72.53
75424;BME280;64005;55.160;36.002;2023-02-23T05:51:31;99302.97;;;-16.52;72.56
75424;BME280;64005;55.160;36.002;2023-02-23T05:53:59;99393.69;;;-15.93;72.21
75424;BME280;64005;55.160;36.002;2023-02-23T05:56:27;99398.56;;;-15.89;72.44
75424;BME280;64005;55.160;36.002;2023-02-23T05:58:56;99379.06;;;-15.89;72.74
75424;BME280;64005;55.160;36.002;2023-02-23T06:01:26;99397.09;;;-15.75;73.23
75424;BME280;64005;55.160;36.002;2023-02-23T06:03:53;99399.75;;;-15.75;72.89
75424;BME280;64005;55.160;36.002;2023-02-23T06:06:21;99400.66;;;-15.66;72.34
75424;BME280;64005;55.160;36.002;2023-02-23T06:08:50;99395.16;;;-15.65;72.76
75424;BME280;64005;55.160;36.002;2023-02-23T06:11:18;99399.53;;;-15.56;72.18
75424;BME280;64005;55.160;36.002;2023-02-23T06:13:45;99408.88;;;-15.44;72.59
75424;BME280;64005;55.160;36.002;2023-02-23T06:16:12;99413.88;;;-15.41;72.51
75424;BME280;64005;55.160;36.002;2023-02-23T06:18:41;99424.72;;;-15.42;72.54
75424;BME280;64005;55.160;36.002;2023-02-23T06:21:09;99416.44;;;-15.31;71.87
75424;BME280;64005;55.160;36.002;2023-02-23T06:23:36;99417.59;;;-15.25;72.21
75424;BME280;64005;55.160;36.002;2023-02-23T06:26:04;99376.38;;;-15.39;71.47
75424;BME280;64005;55.160;36.002;2023-02-23T06:28:33;99428.16;;;-15.08;71.50
75424;BME280;64005;55.160;36.002;2023-02-23T06:31:00;99441.66;;;-15.01;71.42
75424;BME280;64005;55.160;36.002;2023-02-23T06:33:27;99439.88;;;-14.93;72.03
75424;BME280;64005;55.160;36.002;2023-02-23T06:35:56;99427.41;;;-14.76;71.44
75424;BME280;64005;55.160;36.002;2023-02-23T06:38:24;99438.41;;;-14.71;71.48
75424;BME280;64005;55.160;36.002;2023-02-23T06:40:52;99435.94;;;-14.56;71.39
75424;BME280;64005;55.160;36.002;2023-02-23T06:43:19;99441.44;;;-14.41;71.33
75424;BME280;64005;55.160;36.002;2023-02-23T06:45:47;99435.06;;;-14.32;71.13
75424;BME280;64005;55.160;36.002;2023-02-23T06:48:14;99424.03;;;-14.21;70.75
75424;BME280;64005;55.160;36.002;2023-02-23T06:50:42;99441.56;;;-14.11;70.95
75424;BME280;64005;55.160;36.002;2023-02-23T06:53:11;99446.72;;;-13.93;70.72
75424;BME280;64005;55.160;36.002;2023-02-23T06:55:38;99437.03;;;-13.86;70.58
75424;BME280;64005;55.160;36.002;2023-02-23T06:58:06;99439.16;;;-13.73;70.97
75424;BME280;64005;55.160;36.002;2023-02-23T07:00:33;99442.31;;;-13.61;70.61
75424;BME280;64005;55.160;36.002;2023-02-23T07:03:01;99445.50;;;-13.58;70.14
75424;BME280;64005;55.160;36.002;2023-02-23T07:05:28;99452.97;;;-13.45;70.50
75424;BME280;64005;55.160;36.002;2023-02-23T07:07:56;99456.94;;;-13.33;70.17
75424;BME280;64005;55.160;36.002;2023-02-23T07:10:25;99452.41;;;-13.24;69.69
75424;BME280;64005;55.160;36.002;2023-02-23T07:12:53;99451.63;;;-13.10;69.77
75424;BME280;64005;55.160;36.002;2023-02-23T07:15:21;99456.25;;;-12.96;69.50
75424;BME280;64005;55.160;36.002;2023-02-23T07:17:48;99467.88;;;-12.81;69.31
75424;BME280;64005;55.160;36.002;2023-02-23T07:20:18;99464.84;;;-12.78;69.63
75424;BME280;64005;55.160;36.002;2023-02-23T07:22:45;99431.75;;;-12.85;69.47
75424;BME280;64005;55.160;36.002;2023-02-23T07:25:13;99463.84;;;-12.54;69.35
75424;BME280;64005;55.160;36.002;2023-02-23T07:27:41;99462.38;;;-12.34;68.46
75424;BME280;64005;55.160;36.002;2023-02-23T07:30:11;99461.66;;;-12.28;68.85
75424;BME280;64005;55.160;36.002;2023-02-23T07:32:39;99466.53;;;-12.09;68.28
75424;BME280;64005;55.160;36.002;2023-02-23T07:35:07;99465.91;;;-11.96;68.14
75424;BME280;64005;55.160;36.002;2023-02-23T07:37:34;99456.50;;;-11.92;68.06
75424;BME280;64005;55.160;36.002;2023-02-23T07:40:02;99468.19;;;-11.85;68.24
75424;BME280;64005;55.160;36.002;2023-02-23T07:42:30;99463.56;;;-11.76;67.96
75424;BME280;64005;55.160;36.002;2023-02-23T07:44:58;99459.31;;;-11.85;67.76
75424;BME280;64005;55.160;36.002;2023-02-23T07:47:26;99472.00;;;-11.64;67.69
75424;BME280;64005;55.160;36.002;2023-02-23T07:49:57;99475.88;;;-11.52;66.91
75424;BME280;64005;55.160;36.002;2023-02-23T07:52:25;99465.63;;;-11.34;67.26
75424;BME280;64005;55.160;36.002;2023-02-23T07:54:53;99469.50;;;-11.22;66.59
75424;BME280;64005;55.160;36.002;2023-02-23T07:57:20;99465.72;;;-11.13;66.06
75424;BME280;64005;55.160;36.002;2023-02-23T07:59:48;99463.56;;;-11.03;66.35
75424;BME280;64005;55.160;36.002;2023-02-23T08:02:17;99472.34;;;-10.94;66.06
75424;BME280;64005;55.160;36.002;2023-02-23T08:04:44;99467.72;;;-10.86;65.98
75424;BME280;64005;55.160;36.002;2023-02-23T08:07:12;99460.09;;;-10.82;64.96
75424;BME280;64005;55.160;36.002;2023-02-23T08:09:40;99469.06;;;-10.60;65.25
75424;BME280;64005;55.160;36.002;2023-02-23T08:12:08;99459.41;;;-10.55;65.15
75424;BME280;64005;55.160;36.002;2023-02-23T08:14:35;99480.94;;;-10.33;64.65
75424;BME280;64005;55.160;36.002;2023-02-23T08:17:03;99468.16;;;-10.31;64.07
75424;BME280;64005;55.160;36.002;2023-02-23T08:19:32;99471.91;;;-10.26;64.31
75424;BME280;64005;55.160;36.002;2023-02-23T08:22:00;99459.78;;;-10.15;64.66
75424;BME280;64005;55.160;36.002;2023-02-23T08:24:28;99457.91;;;-10.15;63.81
75424;BME280;64005;55.160;36.002;2023-02-23T08:26:56;99458.75;;;-9.93;64.38
75424;BME280;64005;55.160;36.002;2023-02-23T08:29:24;99466.47;;;-9.83;63.44
75424;BME280;64005;55.160;36.002;2023-02-23T08:31:51;99464.41;;;-9.60;63.82
75424;BME280;64005;55.160;36.002;2023-02-23T08:34:19;99458.81;;;-9.58;63.77
75424;BME280;64005;55.160;36.002;2023-02-23T08:36:49;99476.94;;;-9.46;63.30
75424;BME280;64005;55.160;36.002;2023-02-23T08:39:16;99487.72;;;-9.46;62.91
75424;BME280;64005;55.160;36.002;2023-02-23T08:41:44;99483.78;;;-9.43;62.87
75424;BME280;64005;55.160;36.002;2023-02-23T08:44:11;99478.25;;;-9.35;62.75
75424;BME280;64005;55.160;36.002;2023-02-23T08:46:39;99486.59;;;-9.24;62.69
75424;BME280;64005;55.160;36.002;2023-02-23T08:49:06;99480.63;;;-9.19;62.58
75424;BME280;64005;55.160;36.002;2023-02-23T08:51:36;99493.50;;;-9.14;62.29
75424;BME280;64005;55.160;36.002;2023-02-23T08:54:07;99488.81;;;-9.06;62.48
75424;BME280;64005;55.160;36.002;2023-02-23T08:56:39;99493.41;;;-9.00;62.00
75424;BME280;64005;55.160;36.002;2023-02-23T08:59:07;99481.63;;;-8.92;61.84
75424;BME280;64005;55.160;36.002;2023-02-23T09:01:35;99477.97;;;-8.78;61.83
75424;BME280;64005;55.160;36.002;2023-02-23T09:04:03;99483.63;;;-8.66;61.37
75424;BME280;64005;55.160;36.002;2023-02-23T09:06:31;99483.84;;;-8.55;61.35
75424;BME280;64005;55.160;36.002;2023-02-23T09:09:00;99482.69;;;-8.39;61.22
75424;BME280;64005;55.160;36.002;2023-02-23T09:11:29;99443.56;;;-8.63;60.67
75424;BME280;64005;55.160;36.002;2023-02-23T09:13:56;99481.22;;;-8.22;61.03
75424;BME280;64005;55.160;36.002;2023-02-23T09:16:24;99480.63;;;-8.04;60.68
75424;BME280;64005;55.160;36.002;2023-02-23T09:18:52;99477.16;;;-7.91;60.79
75424;BME280;64005;55.160;36.002;2023-02-23T09:21:20;99478.81;;;-7.84;59.95
75424;BME280;64005;55.160;36.002;2023-02-23T09:23:50;99470.09;;;-7.79;59.82
75424;BME280;64005;55.160;36.002;2023-02-23T09:26:19;99469.28;;;-7.73;59.62
75424;BME280;64005;55.160;36.002;2023-02-23T09:28:49;99470.69;;;-7.71;59.15
75424;BME280;64005;55.160;36.002;2023-02-23T09:31:18;99470.50;;;-7.63;59.07
75424;BME280;64005;55.160;36.002;2023-02-23T09:33:46;99483.41;;;-7.45;58.90
75424;BME280;64005;55.160;36.002;2023-02-23T09:36:17;99426.91;;;-7.79;58.64
75424;BME280;64005;55.160;36.002;2023-02-23T09:38:46;99452.44;;;-7.62;58.55
75424;BME280;64005;55.160;36.002;2023-02-23T09:41:42;99462.59;;;-7.38;58.37
75424;BME280;64005;55.160;36.002;2023-02-23T09:44:20;99470.09;;;-7.33;57.55
75424;BME280;64005;55.160;36.002;2023-02-23T09:47:00;99445.13;;;-7.29;57.69
75424;BME280;64005;55.160;36.002;2023-02-23T09:49:34;99452.34;;;-7.09;57.47
75424;BME280;64005;55.160;36.002;2023-02-23T09:52:04;99454.47;;;-7.11;57.14
75424;BME280;64005;55.160;36.002;2023-02-23T09:54:36;99456.72;;;-7.02;56.51
75424;BME280;64005;55.160;36.002;2023-02-23T09:57:09;99447.97;;;-7.04;56.86
75424;BME280;64005;55.160;36.002;2023-02-23T09:59:40;99445.31;;;-7.24;55.84
75424;BME280;64005;55.160;36.002;2023-02-23T10:02:18;99444.22;;;-7.03;56.14
75424;BME280;64005;55.160;36.002;2023-02-23T10:04:48;99444.22;;;-6.96;56.32
75424;BME280;64005;55.160;36.002;2023-02-23T10:07:20;99398.13;;;-7.14;55.83
75424;BME280;64005;55.160;36.002;2023-02-23T10:10:00;99424.63;;;-6.78;55.97
75424;BME280;64005;55.160;36.002;2023-02-23T10:12:36;99429.75;;;-6.70;55.48
75424;BME280;64005;55.160;36.002;2023-02-23T10:15:15;99444.03;;;-6.50;55.24
75424;BME280;64005;55.160;36.002;2023-02-23T10:17:55;99445.00;;;-6.38;55.68
75424;BME280;64005;55.160;36.002;2023-02-23T10:20:33;99436.84;;;-6.31;55.58
75424;BME280;64005;55.160;36.002;2023-02-23T10:23:06;99445.38;;;-6.28;54.65
75424;BME280;64005;55.160;36.002;2023-02-23T10:25:41;99437.59;;;-6.18;54.66
75424;BME280;64005;55.160;36.002;2023-02-23T10:28:12;99434.06;;;-6.12;53.97
75424;BME280;64005;55.160;36.002;2023-02-23T10:30:43;99440.50;;;-6.13;53.92
75424;BME280;64005;55.160;36.002;2023-02-23T10:33:13;99448.00;;;-6.15;54.19
75424;BME280;64005;55.160;36.002;2023-02-23T10:35:43;99437.34;;;-6.10;54.04
75424;BME280;64005;55.160;36.002;2023-02-23T10:38:14;99440.13;;;-5.91;53.59
75424;BME280;64005;55.160;36.002;2023-02-23T10:40:43;99437.09;;;-6.02;52.98
75424;BME280;64005;55.160;36.002;2023-02-23T10:43:12;99441.25;;;-5.99;52.94
75424;BME280;64005;55.160;36.002;2023-02-23T10:45:45;99431.34;;;-6.12;52.56
75424;BME280;64005;55.160;36.002;2023-02-23T10:48:17;99436.47;;;-6.04;53.25
75424;BME280;64005;55.160;36.002;2023-02-23T10:50:46;99432.50;;;-6.01;53.02
75424;BME280;64005;55.160;36.002;2023-02-23T10:53:17;99438.50;;;-5.92;53.04
75424;BME280;64005;55.160;36.002;2023-02-23T10:56:00;99440.91;;;-6.09;51.83
75424;BME280;64005;55.160;36.002;2023-02-23T10:58:28;99438.81;;;-6.07;51.20
75424;BME280;64005;55.160;36.002;2023-02-23T11:00:59;99434.13;;;-5.93;51.80
75424;BME280;64005;55.160;36.002;2023-02-23T11:03:29;99434.34;;;-5.95;50.71
75424;BME280;64005;55.160;36.002;2023-02-23T11:05:58;99423.59;;;-5.83;51.17
75424;BME280;64005;55.160;36.002;2023-02-23T11:08:29;99389.56;;;-5.97;50.71
75424;BME280;64005;55.160;36.002;2023-02-23T11:11:05;99418.53;;;-5.73;50.81
75424;BME280;64005;55.160;36.002;2023-02-23T11:13:37;99425.56;;;-5.66;50.48
75424;BME280;64005;55.160;36.002;2023-02-23T11:16:09;99422.88;;;-5.47;50.57
75424;BME280;64005;55.160;36.002;2023-02-23T11:18:40;99417.59;;;-5.61;49.81
75424;BME280;64005;55.160;36.002;2023-02-23T11:21:16;99391.19;;;-5.72;50.17
75424;BME280;64005;55.160;36.002;2023-02-23T11:23:49;99393.47;;;-5.69;49.85
75424;BME280;64005;55.160;36.002;2023-02-23T11:26:30;99434.22;;;-5.57;49.18
75424;BME280;64005;55.160;36.002;2023-02-23T11:29:01;99409.72;;;-5.69;49.22
75424;BME280;64005;55.160;36.002;2023-02-23T11:31:37;99422.28;;;-5.49;49.76
75424;BME280;64005;55.160;36.002;2023-02-23T11:34:06;99425.59;;;-5.47;49.80
75424;BME280;64005;55.160;36.002;2023-02-23T11:36:35;99422.28;;;-5.49;49.68
75424;BME280;64005;55.160;36.002;2023-02-23T11:39:08;99424.31;;;-5.45;49.24
75424;BME280;64005;55.160;36.002;2023-02-23T11:41:41;99414.16;;;-5.31;49.59
75424;BME280;64005;55.160;36.002;2023-02-23T11:44:19;99416.78;;;-5.43;49.61
75424;BME280;64005;55.160;36.002;2023-02-23T11:46:49;99421.00;;;-5.47;50.11
75424;BME280;64005;55.160;36.002;2023-02-23T11:49:28;99406.16;;;-5.44;50.24
75424;BME280;64005;55.160;36.002;2023-02-23T11:51:58;99417.84;;;-5.44;50.16
75424;BME280;64005;55.160;36.002;2023-02-23T11:54:28;99344.44;;;-5.85;50.10
75424;BME280;64005;55.160;36.002;2023-02-23T11:56:58;99421.03;;;-5.29;50.25
75424;BME280;64005;55.160;36.002;2023-02-23T11:59:30;99377.66;;;-5.72;49.74
75424;BME280;64005;55.160;36.002;2023-02-23T12:02:04;99412.31;;;-5.55;49.55
75424;BME280;64005;55.160;36.002;2023-02-23T12:04:35;99409.66;;;-5.62;49.46
75424;BME280;64005;55.160;36.002;2023-02-23T12:07:25;99414.66;;;-5.59;49.55
75424;BME280;64005;55.160;36.002;2023-02-23T12:10:10;99410.63;;;-5.75;49.13
75424;BME280;64005;55.160;36.002;2023-02-23T12:12:47;99418.47;;;-5.91;49.57
75424;BME280;64005;55.160;36.002;2023-02-23T12:15:24;99392.97;;;-5.84;49.93
75424;BME280;64005;55.160;36.002;2023-02-23T12:17:58;99399.84;;;-5.81;49.51
75424;BME280;64005;55.160;36.002;2023-02-23T12:20:29;99403.59;;;-5.82;49.16
75424;BME280;64005;55.160;36.002;2023-02-23T12:23:02;99413.88;;;-5.66;49.55
75424;BME280;64005;55.160;36.002;2023-02-23T12:25:35;99403.75;;;-5.77;49.91
75424;BME280;64005;55.160;36.002;2023-02-23T12:28:13;99405.25;;;-5.81;50.27
75424;BME280;64005;55.160;36.002;2023-02-23T12:30:47;99388.59;;;-5.85;50.14
75424;BME280;64005;55.160;36.002;2023-02-23T12:33:21;99400.97;;;-5.71;50.42
75424;BME280;64005;55.160;36.002;2023-02-23T12:35:57;99383.19;;;-5.85;50.47
75424;BME280;64005;55.160;36.002;2023-02-23T12:38:30;99355.44;;;-5.98;50.17
75424;BME280;64005;55.160;36.002;2023-02-23T12:41:04;99387.94;;;-5.80;50.39
75424;BME280;64005;55.160;36.002;2023-02-23T12:43:36;99399.50;;;-5.67;50.48
75424;BME280;64005;55.160;36.002;2023-02-23T12:46:10;99403.81;;;-5.84;50.52
75424;BME280;64005;55.160;36.002;2023-02-23T12:48:49;99341.47;;;-6.27;50.09
75424;BME280;64005;55.160;36.002;2023-02-23T12:51:24;99399.13;;;-5.95;50.50
75424;BME280;64005;55.160;36.002;2023-02-23T12:53:53;99410.03;;;-6.02;50.39
75424;BME280;64005;55.160;36.002;2023-02-23T12:56:36;99415.09;;;-6.12;50.52
75424;BME280;64005;55.160;36.002;2023-02-23T12:59:18;99423.44;;;-6.13;50.28
75424;BME280;64005;55.160;36.002;2023-02-23T13:01:52;99384.66;;;-6.38;50.20
75424;BME280;64005;55.160;36.002;2023-02-23T13:04:31;99428.84;;;-6.13;50.35
75424;BME280;64005;55.160;36.002;2023-02-23T13:07:11;99416.63;;;-6.22;50.58
75424;BME280;64005;55.160;36.002;2023-02-23T13:09:47;99418.50;;;-6.23;50.42
75424;BME280;64005;55.160;36.002;2023-02-23T13:15:21;99418.81;;;-6.44;50.35
75424;BME280;64005;55.160;36.002;2023-02-23T13:17:56;99383.75;;;-6.64;50.56
75424;BME280;64005;55.160;36.002;2023-02-23T13:20:33;99415.69;;;-6.41;50.72
75424;BME280;64005;55.160;36.002;2023-02-23T13:23:10;99412.81;;;-6.46;50.67